Time,TemperatureF,DewpointF,PressureIn,WindDirection,WindDirectionDegrees,WindSpeedMPH,WindSpeedGustMPH,Humidity,HourlyPrecipIn,Conditions,Clouds,dailyrainin,SoftwareType,DateUTC
2013-03-31 00:01:00,65.7,61.4,29.81,South,171,0.0,1.0,86,0.00,,,0.00,WeatherCatV1.02B3,2013-03-31 05:01:00,
2013-03-31 00:06:00,65.7,61.4,29.81,SE,134,0.0,4.0,86,0.00,,,0.00,WeatherCatV1.02B3,2013-03-31 05:06:00,
2013-03-31 00:11:00,65.8,61.2,29.81,SSE,166,0.0,6.0,85,0.00,,,0.00,WeatherCatV1.02B3,2013-03-31 05:11:00,
2013-03-31 00:16:00,65.9,61.3,29.81,South,170,0.0,1.0,85,0.00,,,0.00,WeatherCatV1.02B3,2013-03-31 05:16:00,
2013-03-31 00:21:00,65.9,61.3,29.81,SSE,168,0.0,3.0,85,0.00,,,0.00,WeatherCatV1.02B3,2013-03-31 05:21:00,
2013-03-31 00:26:00,66.0,61.4,29.81,South,175,0.0,5.0,85,0.00,,,0.00,WeatherCatV1.02B3,2013-03-31 05:26:00,
2013-03-31 00:31:00,66.0,61.0,29.81,South,175,0.0,5.0,84,0.00,,,0.00,WeatherCatV1.02B3,2013-03-31 05:31:00,
2013-03-31 00:36:00,65.9,60.9,29.81,SSE,150,0.0,1.0,84,0.00,,,0.00,WeatherCatV1.02B3,2013-03-31 05:36:00,
2013-03-31 00:41:00,65.9,60.9,29.81,SSE,165,0.0,5.0,84,0.00,,,0.00,WeatherCatV1.02B3,2013-03-31 05:41:00,
2013-03-31 00:46:00,65.8,60.8,29.80,SSE,149,0.0,6.0,84,0.00,,,0.00,WeatherCatV1.02B3,2013-03-31 05:46:00,
2013-03-31 00:51:00,65.7,60.7,29.80,SSE,160,0.0,3.0,84,0.00,,,0.00,WeatherCatV1.02B3,2013-03-31 05:51:00,
2013-03-31 00:56:00,65.6,60.6,29.80,South,173,0.0,5.0,84,0.00,,,0.00,WeatherCatV1.02B3,2013-03-31 05:56:00,
2013-03-31 01:01:00,65.5,60.5,29.79,South,176,0.0,2.0,84,0.00,,,0.00,WeatherCatV1.02B3,2013-03-31 06:01:00,
2013-03-31 01:06:00,65.4,60.4,29.79,SSE,165,0.0,0.0,84,0.00,,,0.00,WeatherCatV1.02B3,2013-03-31 06:06:00,
2013-03-31 01:11:00,65.3,60.7,29.79,South,175,0.0,1.0,85,0.00,,,0.00,WeatherCatV1.02B3,2013-03-31 06:11:00,
2013-03-31 01:16:00,65.2,60.2,29.79,SSE,161,0.0,2.0,84,0.00,,,0.00,WeatherCatV1.02B3,2013-03-31 06:16:00,
2013-03-31 01:21:00,65.1,60.5,29.79,South,176,0.0,2.0,85,0.00,,,0.00,WeatherCatV1.02B3,2013-03-31 06:21:00,
2013-03-31 01:26:00,65.0,60.4,29.79,SSE,168,0.0,5.0,85,0.00,,,0.00,WeatherCatV1.02B3,2013-03-31 06:26:00,
2013-03-31 01:31:00,65.0,60.4,29.79,South,184,0.0,4.0,85,0.00,,,0.00,WeatherCatV1.02B3,2013-03-31 06:31:00,
2013-03-31 01:36:00,64.9,60.3,29.79,SE,134,0.0,5.0,85,0.00,,,0.00,WeatherCatV1.02B3,2013-03-31 06:36:00,
2013-03-31 01:41:00,64.9,60.3,29.79,South,172,4.0,4.0,85,0.00,,,0.00,WeatherCatV1.02B3,2013-03-31 06:41:00,
2013-03-31 01:46:00,64.9,60.3,29.79,SSE,157,0.0,2.0,85,0.00,,,0.00,WeatherCatV1.02B3,2013-03-31 06:46:00,
2013-03-31 01:51:00,64.9,60.3,29.79,SSE,168,0.0,3.0,85,0.00,,,0.00,WeatherCatV1.02B3,2013-03-31 06:51:00,
2013-03-31 01:56:00,64.9,60.3,29.79,South,175,0.0,4.0,85,0.00,,,0.00,WeatherCatV1.02B3,2013-03-31 06:56:00,
2013-03-31 02:01:00,64.9,60.3,29.80,SSE,155,3.0,5.0,85,0.00,,,0.00,WeatherCatV1.02B3,2013-03-31 07:01:00,
2013-03-31 02:06:00,64.9,60.3,29.80,SSE,147,0.0,0.0,85,0.00,,,0.00,WeatherCatV1.02B3,2013-03-31 07:06:00,
2013-03-31 02:11:00,64.8,60.2,29.80,SE,128,0.0,0.0,85,0.00,,,0.00,WeatherCatV1.02B3,2013-03-31 07:11:00,
2013-03-31 02:16:00,64.7,60.1,29.80,East,92,0.0,0.0,85,0.00,,,0.00,WeatherCatV1.02B3,2013-03-31 07:16:00,
2013-03-31 02:21:00,64.4,59.8,29.80,East,93,0.0,0.0,85,0.00,,,0.00,WeatherCatV1.02B3,2013-03-31 07:21:00,
2013-03-31 02:26:00,64.2,59.9,29.80,SSE,153,0.0,1.0,86,0.00,,,0.00,WeatherCatV1.02B3,2013-03-31 07:26:00,
2013-03-31 02:31:00,63.9,59.6,29.80,South,175,2.0,3.0,86,0.00,,,0.00,WeatherCatV1.02B3,2013-03-31 07:31:00,
2013-03-31 02:36:00,63.7,59.8,29.80,South,169,0.0,4.0,87,0.00,,,0.00,WeatherCatV1.02B3,2013-03-31 07:36:00,
2013-03-31 02:41:00,63.5,59.6,29.80,South,169,0.0,0.0,87,0.00,,,0.00,WeatherCatV1.02B3,2013-03-31 07:41:00,
2013-03-31 02:46:00,63.4,59.5,29.80,SSE,157,0.0,1.0,87,0.00,,,0.00,WeatherCatV1.02B3,2013-03-31 07:46:00,
2013-03-31 02:51:00,63.4,59.8,29.80,SSE,151,0.0,4.0,88,0.00,,,0.00,WeatherCatV1.02B3,2013-03-31 07:51:00,
2013-03-31 02:56:00,63.4,59.8,29.80,South,169,1.0,3.0,88,0.00,,,0.00,WeatherCatV1.02B3,2013-03-31 07:56:00,
2013-03-31 03:01:00,63.4,59.8,29.80,SE,146,0.0,4.0,88,0.00,,,0.00,WeatherCatV1.02B3,2013-03-31 08:01:00,
2013-03-31 03:06:00,63.4,59.8,29.80,SE,135,0.0,1.0,88,0.00,,,0.00,WeatherCatV1.02B3,2013-03-31 08:06:00,
2013-03-31 03:11:00,63.4,59.8,29.80,SSE,163,0.0,0.0,88,0.00,,,0.00,WeatherCatV1.02B3,2013-03-31 08:11:00,
2013-03-31 03:16:00,63.2,59.6,29.79,SSE,163,0.0,0.0,88,0.00,,,0.00,WeatherCatV1.02B3,2013-03-31 08:16:00,
2013-03-31 03:21:00,63.1,59.5,29.79,SSE,157,0.0,0.0,88,0.00,,,0.00,WeatherCatV1.02B3,2013-03-31 08:21:00,
2013-03-31 03:26:00,62.9,59.3,29.79,SE,132,0.0,1.0,88,0.00,,,0.00,WeatherCatV1.02B3,2013-03-31 08:26:00,
2013-03-31 03:31:00,62.8,59.5,29.78,SSE,157,0.0,1.0,89,0.00,,,0.00,WeatherCatV1.02B3,2013-03-31 08:31:00,
2013-03-31 03:36:00,62.7,59.7,29.78,South,170,0.0,3.0,90,0.00,,,0.00,WeatherCatV1.02B3,2013-03-31 08:36:00,
2013-03-31 03:41:00,62.7,59.7,29.78,SSE,168,0.0,2.0,90,0.00,,,0.00,WeatherCatV1.02B3,2013-03-31 08:41:00,
2013-03-31 03:46:00,62.6,59.6,29.78,South,178,0.0,3.0,90,0.00,,,0.00,WeatherCatV1.02B3,2013-03-31 08:46:00,
2013-03-31 03:51:00,62.6,59.6,29.78,ESE,108,1.0,1.0,90,0.00,,,0.00,WeatherCatV1.02B3,2013-03-31 08:51:00,
2013-03-31 03:56:00,62.7,59.7,29.78,South,170,0.0,4.0,90,0.00,,,0.00,WeatherCatV1.02B3,2013-03-31 08:56:00,
2013-03-31 04:01:00,62.7,59.7,29.77,SSE,155,0.0,3.0,90,0.00,,,0.00,WeatherCatV1.02B3,2013-03-31 09:01:00,
2013-03-31 04:06:00,62.8,59.8,29.77,South,170,4.0,4.0,90,0.00,,,0.00,WeatherCatV1.02B3,2013-03-31 09:06:00,
2013-03-31 04:11:00,62.9,59.9,29.77,South,171,0.0,7.0,90,0.00,,,0.00,WeatherCatV1.02B3,2013-03-31 09:11:00,
2013-03-31 04:16:00,63.0,60.0,29.76,South,175,0.0,10.0,90,0.00,,,0.00,WeatherCatV1.02B3,2013-03-31 09:16:00,
2013-03-31 04:21:00,63.1,60.1,29.76,SSE,148,1.0,7.0,90,0.00,,,0.00,WeatherCatV1.02B3,2013-03-31 09:21:00,
2013-03-31 04:26:00,63.1,60.1,29.76,SSE,162,0.0,3.0,90,0.00,,,0.00,WeatherCatV1.02B3,2013-03-31 09:26:00,
2013-03-31 04:31:00,63.2,60.2,29.76,SSE,155,0.0,3.0,90,0.00,,,0.00,WeatherCatV1.02B3,2013-03-31 09:31:00,
2013-03-31 04:36:00,63.1,60.1,29.76,SSE,163,0.0,6.0,90,0.00,,,0.00,WeatherCatV1.02B3,2013-03-31 09:36:00,
2013-03-31 04:41:00,63.0,60.0,29.76,South,177,1.0,5.0,90,0.00,,,0.00,WeatherCatV1.02B3,2013-03-31 09:41:00,
2013-03-31 04:46:00,63.0,60.0,29.76,SSE,167,0.0,7.0,90,0.00,,,0.00,WeatherCatV1.02B3,2013-03-31 09:46:00,
2013-03-31 04:51:00,63.0,60.3,29.76,South,172,0.0,4.0,91,0.00,,,0.00,WeatherCatV1.02B3,2013-03-31 09:51:00,
2013-03-31 04:56:00,63.1,60.4,29.76,South,180,3.0,10.0,91,0.00,,,0.00,WeatherCatV1.02B3,2013-03-31 09:56:00,
2013-03-31 05:01:00,63.1,60.4,29.75,South,171,0.0,4.0,91,0.00,,,0.00,WeatherCatV1.02B3,2013-03-31 10:01:00,
2013-03-31 05:06:00,63.1,60.4,29.75,South,181,0.0,5.0,91,0.00,,,0.00,WeatherCatV1.02B3,2013-03-31 10:06:00,
2013-03-31 05:11:00,63.2,60.8,29.75,South,186,1.0,9.0,92,0.00,,,0.00,WeatherCatV1.02B3,2013-03-31 10:11:00,
2013-03-31 05:16:00,63.3,60.9,29.75,South,181,7.0,7.0,92,0.00,,,0.00,WeatherCatV1.02B3,2013-03-31 10:16:00,
2013-03-31 05:21:00,63.4,61.0,29.75,SSW,201,2.0,9.0,92,0.00,,,0.00,WeatherCatV1.02B3,2013-03-31 10:21:00,
2013-03-31 05:26:00,63.5,61.1,29.75,South,180,11.0,11.0,92,0.00,,,0.00,WeatherCatV1.02B3,2013-03-31 10:26:00,
2013-03-31 05:31:00,63.6,61.2,29.75,SSE,159,6.0,9.0,92,0.00,,,0.00,WeatherCatV1.02B3,2013-03-31 10:31:00,
2013-03-31 05:36:00,63.8,61.7,29.75,South,173,1.0,6.0,93,0.00,,,0.00,WeatherCatV1.02B3,2013-03-31 10:36:00,
2013-03-31 05:41:00,64.0,61.9,29.75,SSW,192,7.0,10.0,93,0.00,,,0.00,WeatherCatV1.02B3,2013-03-31 10:41:00,
2013-03-31 05:46:00,64.1,62.0,29.74,SSE,157,7.0,17.0,93,0.00,,,0.00,WeatherCatV1.02B3,2013-03-31 10:46:00,
2013-03-31 05:51:00,64.2,61.8,29.74,SSE,163,3.0,7.0,92,0.00,,,0.00,WeatherCatV1.02B3,2013-03-31 10:51:00,
2013-03-31 05:56:00,64.3,61.9,29.74,South,190,4.0,10.0,92,0.00,,,0.00,WeatherCatV1.02B3,2013-03-31 10:56:00,
2013-03-31 06:01:00,64.4,62.3,29.75,SSE,165,3.0,10.0,93,0.00,,,0.00,WeatherCatV1.02B3,2013-03-31 11:01:00,
2013-03-31 06:06:00,64.5,62.4,29.75,South,180,7.0,12.0,93,0.00,,,0.00,WeatherCatV1.02B3,2013-03-31 11:06:00,
2013-03-31 06:11:00,64.6,62.2,29.75,South,184,9.0,11.0,92,0.00,,,0.00,WeatherCatV1.02B3,2013-03-31 11:11:00,
2013-03-31 06:16:00,64.7,62.3,29.74,SSE,157,4.0,12.0,92,0.00,,,0.00,WeatherCatV1.02B3,2013-03-31 11:16:00,
2013-03-31 06:21:00,64.7,62.3,29.74,South,182,9.0,12.0,92,0.00,,,0.00,WeatherCatV1.02B3,2013-03-31 11:21:00,
2013-03-31 06:26:00,64.7,62.3,29.74,SSE,163,12.0,12.0,92,0.00,,,0.00,WeatherCatV1.02B3,2013-03-31 11:26:00,
2013-03-31 06:31:00,64.7,62.3,29.73,South,182,4.0,13.0,92,0.00,,,0.00,WeatherCatV1.02B3,2013-03-31 11:31:00,
2013-03-31 06:36:00,64.8,62.4,29.73,SSE,161,5.0,11.0,92,0.00,,,0.00,WeatherCatV1.02B3,2013-03-31 11:36:00,
2013-03-31 06:41:00,64.7,62.3,29.73,South,180,4.0,10.0,92,0.00,,,0.00,WeatherCatV1.02B3,2013-03-31 11:41:00,
2013-03-31 06:46:00,64.7,62.3,29.73,South,170,3.0,8.0,92,0.00,,,0.00,WeatherCatV1.02B3,2013-03-31 11:46:00,
2013-03-31 06:51:00,64.7,62.6,29.73,South,174,4.0,11.0,93,0.00,,,0.00,WeatherCatV1.02B3,2013-03-31 11:51:00,
2013-03-31 06:56:00,64.8,62.7,29.73,SSW,198,6.0,9.0,93,0.00,,,0.00,WeatherCatV1.02B3,2013-03-31 11:56:00,
2013-03-31 07:01:00,64.9,62.8,29.73,South,181,0.0,17.0,93,0.00,,,0.00,WeatherCatV1.02B3,2013-03-31 12:01:00,
2013-03-31 07:06:00,64.9,62.8,29.73,South,182,0.0,7.0,93,0.00,,,0.00,WeatherCatV1.02B3,2013-03-31 12:06:00,
2013-03-31 07:11:00,65.0,62.9,29.73,SSW,211,5.0,13.0,93,0.00,,,0.00,WeatherCatV1.02B3,2013-03-31 12:11:00,
2013-03-31 07:16:00,65.2,63.1,29.72,South,172,2.0,10.0,93,0.00,,,0.00,WeatherCatV1.02B3,2013-03-31 12:16:00,
2013-03-31 07:21:00,65.2,63.1,29.72,SW,217,5.0,14.0,93,0.00,,,0.00,WeatherCatV1.02B3,2013-03-31 12:21:00,
2013-03-31 07:26:00,65.4,63.3,29.72,SSW,194,6.0,18.0,93,0.00,,,0.00,WeatherCatV1.02B3,2013-03-31 12:26:00,
2013-03-31 07:31:00,65.5,63.1,29.72,SSW,211,5.0,11.0,92,0.00,,,0.00,WeatherCatV1.02B3,2013-03-31 12:31:00,
2013-03-31 07:36:00,65.5,63.1,29.72,South,174,0.0,7.0,92,0.00,,,0.00,WeatherCatV1.02B3,2013-03-31 12:36:00,
2013-03-31 07:41:00,65.6,63.2,29.72,SSW,200,0.0,9.0,92,0.00,,,0.00,WeatherCatV1.02B3,2013-03-31 12:41:00,
2013-03-31 07:46:00,65.6,63.2,29.73,SSE,166,0.0,8.0,92,0.00,,,0.00,WeatherCatV1.02B3,2013-03-31 12:46:00,
2013-03-31 07:51:00,65.7,63.3,29.73,SSE,159,0.0,7.0,92,0.00,,,0.00,WeatherCatV1.02B3,2013-03-31 12:51:00,
2013-03-31 07:56:00,65.8,63.4,29.73,SSW,198,6.0,12.0,92,0.00,,,0.00,WeatherCatV1.02B3,2013-03-31 12:56:00,
2013-03-31 08:01:00,65.9,63.5,29.74,WSW,240,11.0,14.0,92,0.00,,,0.00,WeatherCatV1.02B3,2013-03-31 13:01:00,
2013-03-31 08:06:00,66.0,63.3,29.74,South,181,6.0,8.0,91,0.00,,,0.00,WeatherCatV1.02B3,2013-03-31 13:06:00,
2013-03-31 08:11:00,66.0,63.3,29.74,SSW,194,4.0,12.0,91,0.00,,,0.00,WeatherCatV1.02B3,2013-03-31 13:11:00,
2013-03-31 08:16:00,66.1,63.4,29.76,WNW,286,2.0,6.0,91,0.00,,,0.00,WeatherCatV1.02B3,2013-03-31 13:16:00,
2013-03-31 08:21:00,66.2,63.5,29.76,NNW,348,4.0,7.0,91,0.00,,,0.00,WeatherCatV1.02B3,2013-03-31 13:21:00,
2013-03-31 08:26:00,65.9,61.9,29.76,NE,38,14.0,24.0,87,0.00,,,0.00,WeatherCatV1.02B3,2013-03-31 13:26:00,
2013-03-31 08:31:00,64.4,59.8,29.87,NNE,28,6.0,10.0,85,2.06,,,0.12,WeatherCatV1.02B3,2013-03-31 13:31:00,
2013-03-31 08:36:00,62.9,59.0,29.87,North,349,7.0,11.0,87,1.89,,,0.30,WeatherCatV1.02B3,2013-03-31 13:36:00,
2013-03-31 08:41:00,61.8,58.5,29.87,NE,39,4.0,12.0,89,0.29,,,0.34,WeatherCatV1.02B3,2013-03-31 13:41:00,
2013-03-31 08:46:00,60.9,57.9,29.86,NE,40,7.0,13.0,90,0.16,,,0.35,WeatherCatV1.02B3,2013-03-31 13:46:00,
2013-03-31 08:51:00,60.3,57.7,29.86,NNE,30,5.0,5.0,91,0.07,,,0.35,WeatherCatV1.02B3,2013-03-31 13:51:00,
2013-03-31 08:56:00,59.9,57.6,29.86,NE,42,2.0,7.0,92,0.04,,,0.35,WeatherCatV1.02B3,2013-03-31 13:56:00,
2013-03-31 09:01:00,59.6,57.6,29.86,NNE,17,0.0,5.0,93,0.04,,,0.36,WeatherCatV1.02B3,2013-03-31 14:01:00,
2013-03-31 09:06:00,59.5,57.5,29.86,NE,54,2.0,5.0,93,0.04,,,0.36,WeatherCatV1.02B3,2013-03-31 14:06:00,
2013-03-31 09:11:00,59.2,57.2,29.86,NNE,32,5.0,9.0,93,0.04,,,0.36,WeatherCatV1.02B3,2013-03-31 14:11:00,
2013-03-31 09:16:00,59.0,57.0,29.86,NE,40,4.0,10.0,93,0.00,,,0.36,WeatherCatV1.02B3,2013-03-31 14:16:00,
2013-03-31 09:21:00,58.8,56.8,29.86,NE,46,1.0,6.0,93,0.00,,,0.36,WeatherCatV1.02B3,2013-03-31 14:21:00,
2013-03-31 09:26:00,58.6,56.9,29.86,NE,38,0.0,5.0,94,0.00,,,0.36,WeatherCatV1.02B3,2013-03-31 14:26:00,
2013-03-31 09:31:00,58.7,57.0,29.85,NE,51,5.0,13.0,94,0.00,,,0.36,WeatherCatV1.02B3,2013-03-31 14:31:00,
2013-03-31 09:36:00,59.1,57.7,29.85,ENE,75,0.0,1.0,95,0.00,,,0.36,WeatherCatV1.02B3,2013-03-31 14:36:00,
2013-03-31 09:41:00,59.5,58.1,29.85,East,99,6.0,11.0,95,0.00,,,0.36,WeatherCatV1.02B3,2013-03-31 14:41:00,
2013-03-31 09:46:00,60.0,58.9,29.86,East,81,4.0,5.0,96,0.00,,,0.36,WeatherCatV1.02B3,2013-03-31 14:46:00,
2013-03-31 09:51:00,60.4,59.3,29.86,NE,44,5.0,10.0,96,0.00,,,0.36,WeatherCatV1.02B3,2013-03-31 14:51:00,
2013-03-31 09:56:00,60.7,59.0,29.86,NE,47,3.0,7.0,94,0.00,,,0.36,WeatherCatV1.02B3,2013-03-31 14:56:00,
2013-03-31 10:01:00,61.0,59.3,29.86,NE,47,1.0,10.0,94,0.00,,,0.36,WeatherCatV1.02B3,2013-03-31 15:01:00,
2013-03-31 10:06:00,61.1,58.8,29.86,North,10,3.0,7.0,92,0.00,,,0.36,WeatherCatV1.02B3,2013-03-31 15:06:00,
2013-03-31 10:11:00,61.2,58.5,29.86,East,80,6.0,11.0,91,0.00,,,0.36,WeatherCatV1.02B3,2013-03-31 15:11:00,
2013-03-31 10:16:00,61.2,58.5,29.86,ENE,61,0.0,5.0,91,0.00,,,0.36,WeatherCatV1.02B3,2013-03-31 15:16:00,
2013-03-31 10:21:00,61.5,59.2,29.86,ENE,61,0.0,5.0,92,0.00,,,0.36,WeatherCatV1.02B3,2013-03-31 15:21:00,
2013-03-31 10:26:00,62.1,59.7,29.86,NNE,24,11.0,11.0,92,0.00,,,0.36,WeatherCatV1.02B3,2013-03-31 15:26:00,
2013-03-31 10:31:00,62.6,60.2,29.88,ENE,66,0.0,9.0,92,0.00,,,0.36,WeatherCatV1.02B3,2013-03-31 15:31:00,
2013-03-31 10:36:00,62.9,59.9,29.88,ENE,70,4.0,6.0,90,0.00,,,0.36,WeatherCatV1.02B3,2013-03-31 15:36:00,
2013-03-31 10:41:00,63.1,60.1,29.88,ENE,71,3.0,7.0,90,0.00,,,0.36,WeatherCatV1.02B3,2013-03-31 15:41:00,
2013-03-31 10:46:00,63.2,59.6,29.90,ENE,67,0.0,9.0,88,0.00,,,0.36,WeatherCatV1.02B3,2013-03-31 15:46:00,
2013-03-31 10:51:00,63.3,59.7,29.90,North,9,0.0,0.0,88,0.00,,,0.36,WeatherCatV1.02B3,2013-03-31 15:51:00,
2013-03-31 10:56:00,63.4,59.5,29.90,NE,35,0.0,6.0,87,0.00,,,0.36,WeatherCatV1.02B3,2013-03-31 15:56:00,
2013-03-31 11:01:00,63.4,59.5,29.90,NE,39,3.0,6.0,87,0.00,,,0.36,WeatherCatV1.02B3,2013-03-31 16:01:00,
2013-03-31 11:06:00,63.5,59.6,29.90,North,11,6.0,7.0,87,0.00,,,0.36,WeatherCatV1.02B3,2013-03-31 16:06:00,
2013-03-31 11:11:00,63.5,59.2,29.90,NNE,19,0.0,1.0,86,0.00,,,0.36,WeatherCatV1.02B3,2013-03-31 16:11:00,
2013-03-31 11:16:00,63.6,59.7,29.88,NNE,16,2.0,6.0,87,0.00,,,0.36,WeatherCatV1.02B3,2013-03-31 16:16:00,
2013-03-31 11:21:00,63.8,59.9,29.88,NE,39,0.0,2.0,87,0.00,,,0.36,WeatherCatV1.02B3,2013-03-31 16:21:00,
2013-03-31 11:26:00,64.0,60.0,29.88,NE,40,0.0,4.0,87,0.00,,,0.36,WeatherCatV1.02B3,2013-03-31 16:26:00,
2013-03-31 11:31:00,64.3,60.0,29.88,NE,35,0.0,4.0,86,0.00,,,0.36,WeatherCatV1.02B3,2013-03-31 16:31:00,
2013-03-31 11:36:00,64.7,60.4,29.88,NE,46,0.0,0.0,86,0.00,,,0.36,WeatherCatV1.02B3,2013-03-31 16:36:00,
2013-03-31 11:41:00,65.0,60.4,29.88,East,85,0.0,3.0,85,0.00,,,0.36,WeatherCatV1.02B3,2013-03-31 16:41:00,
2013-03-31 11:46:00,65.3,60.0,29.88,NE,36,4.0,4.0,83,0.00,,,0.36,WeatherCatV1.02B3,2013-03-31 16:46:00,
2013-03-31 11:51:00,65.6,59.6,29.88,North,0,2.0,3.0,81,0.00,,,0.36,WeatherCatV1.02B3,2013-03-31 16:51:00,
2013-03-31 11:56:00,65.8,60.1,29.88,North,0,0.0,4.0,82,0.00,,,0.36,WeatherCatV1.02B3,2013-03-31 16:56:00,
2013-03-31 12:01:00,66.1,60.4,29.89,NE,55,0.0,1.0,82,0.00,,,0.36,WeatherCatV1.02B3,2013-03-31 17:01:00,
2013-03-31 12:06:00,67.1,61.4,29.89,NNE,32,0.0,6.0,82,0.00,,,0.36,WeatherCatV1.02B3,2013-03-31 17:06:00,
2013-03-31 12:11:00,67.4,61.0,29.89,NNE,16,3.0,7.0,80,0.00,,,0.36,WeatherCatV1.02B3,2013-03-31 17:11:00,
2013-03-31 12:16:00,67.3,60.6,29.90,NW,321,1.0,5.0,79,0.00,,,0.36,WeatherCatV1.02B3,2013-03-31 17:16:00,
2013-03-31 12:21:00,67.4,60.7,29.90,NNW,346,4.0,7.0,79,0.00,,,0.36,WeatherCatV1.02B3,2013-03-31 17:21:00,
2013-03-31 12:26:00,67.3,60.2,29.90,NNW,342,4.0,5.0,78,0.00,,,0.36,WeatherCatV1.02B3,2013-03-31 17:26:00,
2013-03-31 12:32:00,67.4,61.4,29.90,North,350,6.0,9.0,81,0.00,,,0.36,WeatherCatV1.02B3,2013-03-31 17:32:00,
2013-03-31 12:37:00,67.6,60.5,29.90,NNW,329,4.0,7.0,78,0.00,,,0.36,WeatherCatV1.02B3,2013-03-31 17:37:00,
2013-03-31 12:42:00,67.7,60.6,29.90,NW,320,3.0,5.0,78,0.00,,,0.36,WeatherCatV1.02B3,2013-03-31 17:42:00,
2013-03-31 12:47:00,67.6,60.1,29.90,NW,317,0.0,5.0,77,0.00,,,0.36,WeatherCatV1.02B3,2013-03-31 17:47:00,
2013-03-31 12:52:00,67.3,60.2,29.90,North,349,3.0,4.0,78,0.00,,,0.36,WeatherCatV1.02B3,2013-03-31 17:52:00,
2013-03-31 12:57:00,67.3,60.6,29.90,North,349,0.0,5.0,79,0.00,,,0.36,WeatherCatV1.02B3,2013-03-31 17:57:00,
2013-03-31 13:02:00,67.7,60.9,29.89,NNW,346,3.0,9.0,79,0.00,,,0.36,WeatherCatV1.02B3,2013-03-31 18:02:00,
2013-03-31 13:07:00,67.8,61.0,29.89,North,9,3.0,6.0,79,0.00,,,0.36,WeatherCatV1.02B3,2013-03-31 18:07:00,
2013-03-31 13:12:00,67.7,60.6,29.89,NNW,331,4.0,5.0,78,0.00,,,0.36,WeatherCatV1.02B3,2013-03-31 18:12:00,
2013-03-31 13:17:00,67.7,60.9,29.89,North,350,1.0,3.0,79,0.00,,,0.36,WeatherCatV1.02B3,2013-03-31 18:17:00,
2013-03-31 13:22:00,67.7,61.3,29.89,WNW,290,0.0,3.0,80,0.00,,,0.36,WeatherCatV1.02B3,2013-03-31 18:22:00,
2013-03-31 13:27:00,67.9,61.1,29.89,NW,306,5.0,5.0,79,0.00,,,0.36,WeatherCatV1.02B3,2013-03-31 18:27:00,
2013-03-31 13:32:00,68.4,61.3,29.88,NNW,328,3.0,3.0,78,0.00,,,0.36,WeatherCatV1.02B3,2013-03-31 18:32:00,
2013-03-31 13:37:00,69.1,61.9,29.88,NNW,333,4.0,6.0,78,0.00,,,0.36,WeatherCatV1.02B3,2013-03-31 18:37:00,
2013-03-31 13:42:00,69.8,62.6,29.88,WNW,290,4.0,5.0,78,0.00,,,0.36,WeatherCatV1.02B3,2013-03-31 18:42:00,
2013-03-31 13:47:00,70.4,61.7,29.88,North,0,3.0,5.0,74,0.00,,,0.36,WeatherCatV1.02B3,2013-03-31 18:47:00,
2013-03-31 13:52:00,70.9,62.2,29.88,NW,326,3.0,7.0,74,0.00,,,0.36,WeatherCatV1.02B3,2013-03-31 18:52:00,
2013-03-31 13:57:00,71.2,61.7,29.88,North,349,3.0,4.0,72,0.00,,,0.36,WeatherCatV1.02B3,2013-03-31 18:57:00,
2013-03-31 14:02:00,71.5,60.4,29.88,North,9,7.0,7.0,68,0.00,,,0.36,WeatherCatV1.02B3,2013-03-31 19:02:00,
2013-03-31 14:07:00,71.9,61.2,29.88,NE,46,0.0,2.0,69,0.00,,,0.36,WeatherCatV1.02B3,2013-03-31 19:07:00,
2013-03-31 14:12:00,72.5,60.9,29.88,ENE,78,4.0,5.0,67,0.00,,,0.36,WeatherCatV1.02B3,2013-03-31 19:12:00,
2013-03-31 14:17:00,73.2,62.8,29.88,NNE,30,4.0,6.0,70,0.00,,,0.36,WeatherCatV1.02B3,2013-03-31 19:17:00,
2013-03-31 14:22:00,73.9,61.8,29.88,NE,50,0.0,7.0,66,0.00,,,0.36,WeatherCatV1.02B3,2013-03-31 19:22:00,
2013-03-31 14:27:00,74.3,62.2,29.88,NNW,340,5.0,6.0,66,0.00,,,0.36,WeatherCatV1.02B3,2013-03-31 19:27:00,
2013-03-31 14:32:00,74.4,61.8,29.87,NNW,347,6.0,7.0,65,0.00,,,0.36,WeatherCatV1.02B3,2013-03-31 19:32:00,
2013-03-31 14:37:00,74.3,62.2,29.87,NNW,343,4.0,6.0,66,0.00,,,0.36,WeatherCatV1.02B3,2013-03-31 19:37:00,
2013-03-31 14:42:00,74.5,61.9,29.87,WNW,283,5.0,6.0,65,0.00,,,0.36,WeatherCatV1.02B3,2013-03-31 19:42:00,
2013-03-31 14:47:00,74.6,62.0,29.87,NNW,341,3.0,8.0,65,0.00,,,0.36,WeatherCatV1.02B3,2013-03-31 19:47:00,
2013-03-31 14:52:00,74.5,61.9,29.87,NW,305,0.0,9.0,65,0.00,,,0.36,WeatherCatV1.02B3,2013-03-31 19:52:00,
2013-03-31 14:57:00,74.6,62.5,29.87,NW,311,5.0,7.0,66,0.00,,,0.36,WeatherCatV1.02B3,2013-03-31 19:57:00,
2013-03-31 15:02:00,74.8,62.2,29.87,WNW,286,2.0,7.0,65,0.00,,,0.36,WeatherCatV1.02B3,2013-03-31 20:02:00,
2013-03-31 15:07:00,75.0,62.4,29.87,NE,35,0.0,5.0,65,0.00,,,0.36,WeatherCatV1.02B3,2013-03-31 20:07:00,
2013-03-31 15:12:00,75.6,63.4,29.87,NNE,24,0.0,6.0,66,0.00,,,0.36,WeatherCatV1.02B3,2013-03-31 20:12:00,
2013-03-31 15:17:00,76.0,62.5,29.87,North,9,5.0,13.0,63,0.00,,,0.36,WeatherCatV1.02B3,2013-03-31 20:17:00,
2013-03-31 15:22:00,76.1,62.1,29.87,North,355,5.0,10.0,62,0.00,,,0.36,WeatherCatV1.02B3,2013-03-31 20:22:00,
2013-03-31 15:27:00,76.2,62.7,29.87,North,5,3.0,9.0,63,0.00,,,0.36,WeatherCatV1.02B3,2013-03-31 20:27:00,
2013-03-31 15:32:00,76.3,62.8,29.86,North,355,4.0,10.0,63,0.00,,,0.36,WeatherCatV1.02B3,2013-03-31 20:32:00,
2013-03-31 15:37:00,76.4,62.4,29.86,NNW,345,2.0,5.0,62,0.00,,,0.36,WeatherCatV1.02B3,2013-03-31 20:37:00,
2013-03-31 15:42:00,76.6,62.1,29.86,NNE,17,0.0,12.0,61,0.00,,,0.36,WeatherCatV1.02B3,2013-03-31 20:42:00,
2013-03-31 15:47:00,76.8,61.4,29.86,NNW,334,6.0,12.0,59,0.00,,,0.36,WeatherCatV1.02B3,2013-03-31 20:47:00,
2013-03-31 15:52:00,77.0,61.1,29.86,NW,323,4.0,10.0,58,0.00,,,0.36,WeatherCatV1.02B3,2013-03-31 20:52:00,
2013-03-31 15:57:00,77.0,61.1,29.86,North,350,2.0,8.0,58,0.00,,,0.36,WeatherCatV1.02B3,2013-03-31 20:57:00,
2013-03-31 16:02:00,77.2,60.3,29.86,North,10,7.0,8.0,56,0.00,,,0.36,WeatherCatV1.02B3,2013-03-31 21:02:00,
2013-03-31 16:07:00,77.1,58.6,29.86,North,355,5.0,12.0,53,0.00,,,0.36,WeatherCatV1.02B3,2013-03-31 21:07:00,
2013-03-31 16:12:00,77.1,59.7,29.86,NNW,329,0.0,2.0,55,0.00,,,0.36,WeatherCatV1.02B3,2013-03-31 21:12:00,
2013-03-31 16:17:00,77.3,59.9,29.86,North,355,6.0,8.0,55,0.00,,,0.36,WeatherCatV1.02B3,2013-03-31 21:17:00,
2013-03-31 16:22:00,77.5,57.9,29.86,NE,49,4.0,10.0,51,0.00,,,0.36,WeatherCatV1.02B3,2013-03-31 21:22:00,
2013-03-31 16:27:00,77.7,59.2,29.86,North,11,0.0,6.0,53,0.00,,,0.36,WeatherCatV1.02B3,2013-03-31 21:27:00,
2013-03-31 16:32:00,78.0,58.9,29.85,NNE,24,1.0,6.0,52,0.00,,,0.36,WeatherCatV1.02B3,2013-03-31 21:32:00,
2013-03-31 16:37:00,78.0,59.5,29.85,NNE,15,5.0,7.0,53,0.00,,,0.36,WeatherCatV1.02B3,2013-03-31 21:37:00,
2013-03-31 16:42:00,78.2,60.2,29.85,NE,43,0.0,1.0,54,0.00,,,0.36,WeatherCatV1.02B3,2013-03-31 21:42:00,
2013-03-31 16:47:00,78.3,59.2,29.84,NNE,19,4.0,4.0,52,0.00,,,0.36,WeatherCatV1.02B3,2013-03-31 21:47:00,
2013-03-31 16:52:00,78.4,59.8,29.84,North,10,8.0,9.0,53,0.00,,,0.36,WeatherCatV1.02B3,2013-03-31 21:52:00,
2013-03-31 16:57:00,78.1,59.6,29.84,North,355,9.0,9.0,53,0.00,,,0.36,WeatherCatV1.02B3,2013-03-31 21:57:00,
2013-03-31 17:02:00,77.9,59.4,29.84,NNW,338,1.0,4.0,53,0.00,,,0.36,WeatherCatV1.02B3,2013-03-31 22:02:00,
2013-03-31 17:07:00,77.8,59.3,29.84,ENE,59,6.0,11.0,53,0.00,,,0.36,WeatherCatV1.02B3,2013-03-31 22:07:00,
2013-03-31 17:12:00,77.6,59.1,29.84,NNE,17,3.0,9.0,53,0.00,,,0.36,WeatherCatV1.02B3,2013-03-31 22:12:00,
2013-03-31 17:17:00,77.4,58.9,29.83,ENE,61,5.0,9.0,53,0.00,,,0.36,WeatherCatV1.02B3,2013-03-31 22:17:00,
2013-03-31 17:22:00,77.3,58.8,29.83,North,5,0.0,9.0,53,0.00,,,0.36,WeatherCatV1.02B3,2013-03-31 22:22:00,
2013-03-31 17:27:00,77.1,58.6,29.83,NE,43,4.0,8.0,53,0.00,,,0.36,WeatherCatV1.02B3,2013-03-31 22:27:00,
2013-03-31 17:32:00,76.8,58.4,29.83,North,0,5.0,11.0,53,0.00,,,0.36,WeatherCatV1.02B3,2013-03-31 22:32:00,
2013-03-31 17:37:00,76.5,58.6,29.83,NE,40,4.0,11.0,54,0.00,,,0.36,WeatherCatV1.02B3,2013-03-31 22:37:00,
2013-03-31 17:42:00,76.2,58.8,29.83,NNE,32,0.0,5.0,55,0.00,,,0.36,WeatherCatV1.02B3,2013-03-31 22:42:00,
2013-03-31 17:47:00,75.9,58.6,29.83,NNE,21,3.0,10.0,55,0.00,,,0.36,WeatherCatV1.02B3,2013-03-31 22:47:00,
2013-03-31 17:52:00,75.6,58.8,29.83,NNE,22,2.0,10.0,56,0.00,,,0.36,WeatherCatV1.02B3,2013-03-31 22:52:00,
2013-03-31 17:57:00,75.3,58.5,29.83,NNW,345,6.0,10.0,56,0.00,,,0.36,WeatherCatV1.02B3,2013-03-31 22:57:00,
2013-03-31 18:02:00,75.0,58.7,29.83,North,350,2.0,9.0,57,0.00,,,0.36,WeatherCatV1.02B3,2013-03-31 23:02:00,
2013-03-31 18:07:00,74.7,58.4,29.83,NNW,348,5.0,5.0,57,0.00,,,0.36,WeatherCatV1.02B3,2013-03-31 23:07:00,
2013-03-31 18:12:00,74.3,58.5,29.83,NE,36,3.0,9.0,58,0.00,,,0.36,WeatherCatV1.02B3,2013-03-31 23:12:00,
2013-03-31 18:17:00,74.1,57.9,29.83,North,355,3.0,10.0,57,0.00,,,0.36,WeatherCatV1.02B3,2013-03-31 23:17:00,
2013-03-31 18:22:00,73.9,57.7,29.83,North,0,1.0,4.0,57,0.00,,,0.36,WeatherCatV1.02B3,2013-03-31 23:22:00,
2013-03-31 18:27:00,73.7,58.0,29.83,North,0,6.0,10.0,58,0.00,,,0.36,WeatherCatV1.02B3,2013-03-31 23:27:00,
2013-03-31 18:32:00,73.4,57.2,29.83,NNE,22,5.0,10.0,57,0.00,,,0.36,WeatherCatV1.02B3,2013-03-31 23:32:00,
2013-03-31 18:37:00,73.1,57.9,29.83,North,355,5.0,6.0,59,0.00,,,0.36,WeatherCatV1.02B3,2013-03-31 23:37:00,
2013-03-31 18:42:00,72.8,57.6,29.83,NNW,344,3.0,4.0,59,0.00,,,0.36,WeatherCatV1.02B3,2013-03-31 23:42:00,
2013-03-31 18:47:00,72.6,57.4,29.84,NNE,22,3.0,4.0,59,0.00,,,0.36,WeatherCatV1.02B3,2013-03-31 23:47:00,
2013-03-31 18:52:00,72.3,56.2,29.84,North,0,4.0,7.0,57,0.00,,,0.36,WeatherCatV1.02B3,2013-03-31 23:52:00,
2013-03-31 18:57:00,72.1,56.5,29.84,NE,40,0.0,6.0,58,0.00,,,0.36,WeatherCatV1.02B3,2013-03-31 23:57:00,
2013-03-31 19:02:00,71.9,55.8,29.84,NNW,348,4.0,5.0,57,0.00,,,0.36,WeatherCatV1.02B3,2013-04-01 00:02:00,
2013-03-31 19:07:00,71.7,55.2,29.84,North,9,2.0,7.0,56,0.00,,,0.36,WeatherCatV1.02B3,2013-04-01 00:07:00,
2013-03-31 19:12:00,71.5,55.5,29.84,NNE,15,2.0,8.0,57,0.00,,,0.36,WeatherCatV1.02B3,2013-04-01 00:12:00,
2013-03-31 19:17:00,71.2,56.1,29.84,NNE,17,0.0,1.0,59,0.00,,,0.36,WeatherCatV1.02B3,2013-04-01 00:17:00,
2013-03-31 19:22:00,71.0,55.5,29.84,NNE,19,2.0,3.0,58,0.00,,,0.36,WeatherCatV1.02B3,2013-04-01 00:22:00,
2013-03-31 19:27:00,70.7,55.7,29.84,NNE,19,1.0,3.0,59,0.00,,,0.36,WeatherCatV1.02B3,2013-04-01 00:27:00,
2013-03-31 19:32:00,70.4,56.3,29.84,NNE,19,0.0,2.0,61,0.00,,,0.36,WeatherCatV1.02B3,2013-04-01 00:32:00,
2013-03-31 19:37:00,70.2,56.1,29.84,NNE,19,0.0,4.0,61,0.00,,,0.36,WeatherCatV1.02B3,2013-04-01 00:37:00,
2013-03-31 19:42:00,70.0,55.9,29.84,NNE,19,0.0,0.0,61,0.00,,,0.36,WeatherCatV1.02B3,2013-04-01 00:42:00,
2013-03-31 19:47:00,69.7,56.5,29.85,NNE,19,0.0,0.0,63,0.00,,,0.36,WeatherCatV1.02B3,2013-04-01 00:47:00,
2013-03-31 19:52:00,69.5,56.8,29.85,NNE,19,0.0,1.0,64,0.00,,,0.36,WeatherCatV1.02B3,2013-04-01 00:52:00,
2013-03-31 19:57:00,69.2,56.9,29.85,NNE,19,0.0,3.0,65,0.00,,,0.36,WeatherCatV1.02B3,2013-04-01 00:57:00,
2013-03-31 20:02:00,68.8,57.4,29.85,NNE,19,0.0,1.0,67,0.00,,,0.36,WeatherCatV1.02B3,2013-04-01 01:02:00,
2013-03-31 20:07:00,68.3,57.3,29.85,NNE,19,0.0,1.0,68,0.00,,,0.36,WeatherCatV1.02B3,2013-04-01 01:07:00,
2013-03-31 20:12:00,67.9,57.3,29.85,NNE,19,0.0,0.0,69,0.00,,,0.36,WeatherCatV1.02B3,2013-04-01 01:12:00,
2013-03-31 20:17:00,67.4,57.3,29.86,NNE,19,1.0,3.0,70,0.00,,,0.36,WeatherCatV1.02B3,2013-04-01 01:17:00,
2013-03-31 20:22:00,67.0,56.5,29.86,NNE,19,0.0,1.0,69,0.00,,,0.36,WeatherCatV1.02B3,2013-04-01 01:22:00,
2013-03-31 20:27:00,66.7,57.0,29.86,NNE,19,0.0,2.0,71,0.00,,,0.36,WeatherCatV1.02B3,2013-04-01 01:27:00,
2013-03-31 20:32:00,66.4,57.1,29.86,NNE,19,0.0,0.0,72,0.00,,,0.36,WeatherCatV1.02B3,2013-04-01 01:32:00,
2013-03-31 20:37:00,66.1,57.2,29.86,NNE,19,0.0,0.0,73,0.00,,,0.36,WeatherCatV1.02B3,2013-04-01 01:37:00,
2013-03-31 20:42:00,65.7,56.8,29.86,NNE,19,0.0,3.0,73,0.00,,,0.36,WeatherCatV1.02B3,2013-04-01 01:42:00,
2013-03-31 20:47:00,65.4,56.9,29.87,NNE,19,0.0,3.0,74,0.00,,,0.36,WeatherCatV1.02B3,2013-04-01 01:47:00,
2013-03-31 20:52:00,65.2,57.4,29.87,NNE,19,0.0,0.0,76,0.00,,,0.36,WeatherCatV1.02B3,2013-04-01 01:52:00,
2013-03-31 20:57:00,64.9,57.1,29.87,NNE,19,0.0,0.0,76,0.00,,,0.36,WeatherCatV1.02B3,2013-04-01 01:57:00,
2013-03-31 21:02:00,64.6,56.9,29.87,NNE,19,0.0,1.0,76,0.00,,,0.36,WeatherCatV1.02B3,2013-04-01 02:02:00,
2013-03-31 21:07:00,64.4,56.3,29.87,NNE,19,0.0,0.0,75,0.00,,,0.36,WeatherCatV1.02B3,2013-04-01 02:07:00,
2013-03-31 21:12:00,64.3,56.2,29.87,NNE,19,0.0,0.0,75,0.00,,,0.36,WeatherCatV1.02B3,2013-04-01 02:12:00,
2013-03-31 21:17:00,64.1,56.0,29.88,NNE,19,0.0,0.0,75,0.00,,,0.36,WeatherCatV1.02B3,2013-04-01 02:17:00,
2013-03-31 21:22:00,63.9,56.2,29.88,NNE,19,0.0,0.0,76,0.00,,,0.36,WeatherCatV1.02B3,2013-04-01 02:22:00,
2013-03-31 21:27:00,63.8,56.1,29.88,NNE,19,0.0,0.0,76,0.00,,,0.36,WeatherCatV1.02B3,2013-04-01 02:27:00,
2013-03-31 21:32:00,63.6,55.9,29.88,NNE,19,0.0,0.0,76,0.00,,,0.36,WeatherCatV1.02B3,2013-04-01 02:32:00,
2013-03-31 21:37:00,63.4,55.7,29.88,NNE,19,0.0,0.0,76,0.00,,,0.36,WeatherCatV1.02B3,2013-04-01 02:37:00,
2013-03-31 21:42:00,63.2,56.2,29.88,NNE,19,0.0,0.0,78,0.00,,,0.36,WeatherCatV1.02B3,2013-04-01 02:42:00,
2013-03-31 21:47:00,62.9,56.3,29.88,NNE,19,0.0,0.0,79,0.00,,,0.36,WeatherCatV1.02B3,2013-04-01 02:47:00,
2013-03-31 21:52:00,62.7,56.1,29.88,NNE,19,0.0,0.0,79,0.00,,,0.36,WeatherCatV1.02B3,2013-04-01 02:52:00,
2013-03-31 21:57:00,62.4,55.8,29.88,NNE,19,0.0,0.0,79,0.00,,,0.36,WeatherCatV1.02B3,2013-04-01 02:57:00,
2013-03-31 22:02:00,62.2,55.9,29.89,NNE,19,0.0,0.0,80,0.00,,,0.36,WeatherCatV1.02B3,2013-04-01 03:02:00,
2013-03-31 22:07:00,61.9,55.7,29.89,NNE,19,0.0,0.0,80,0.00,,,0.36,WeatherCatV1.02B3,2013-04-01 03:07:00,
2013-03-31 22:12:00,61.7,55.8,29.89,NNE,19,2.0,2.0,81,0.00,,,0.36,WeatherCatV1.02B3,2013-04-01 03:12:00,
2013-03-31 22:17:00,61.4,55.5,29.90,NNE,19,0.0,0.0,81,0.00,,,0.36,WeatherCatV1.02B3,2013-04-01 03:17:00,
2013-03-31 22:22:00,61.2,55.3,29.90,NNE,19,0.0,0.0,81,0.00,,,0.36,WeatherCatV1.02B3,2013-04-01 03:22:00,
2013-03-31 22:27:00,61.0,55.5,29.90,NNE,19,0.0,0.0,82,0.00,,,0.36,WeatherCatV1.02B3,2013-04-01 03:27:00,
2013-03-31 22:32:00,60.8,55.3,29.90,NNE,19,0.0,1.0,82,0.00,,,0.36,WeatherCatV1.02B3,2013-04-01 03:32:00,
2013-03-31 22:37:00,60.6,54.7,29.90,NNE,19,0.0,1.0,81,0.00,,,0.36,WeatherCatV1.02B3,2013-04-01 03:37:00,
2013-03-31 22:42:00,60.4,54.5,29.90,NNE,19,0.0,0.0,81,0.00,,,0.36,WeatherCatV1.02B3,2013-04-01 03:42:00,
2013-03-31 22:47:00,60.2,53.7,29.90,NNE,19,0.0,0.0,79,0.00,,,0.36,WeatherCatV1.02B3,2013-04-01 03:47:00,
2013-03-31 22:52:00,60.0,53.5,29.90,NNE,19,1.0,1.0,79,0.00,,,0.36,WeatherCatV1.02B3,2013-04-01 03:52:00,
2013-03-31 22:57:00,59.9,53.7,29.90,NNE,19,0.0,1.0,80,0.00,,,0.36,WeatherCatV1.02B3,2013-04-01 03:57:00,
2013-03-31 23:00:00,59.8,54.0,29.90,NNE,19,1.0,3.0,81,0.00,,,0.36,WeatherCatV1.02B3,2013-04-01 04:00:00,
2013-03-31 23:01:00,59.8,53.6,29.90,NNE,19,0.0,3.0,80,0.00,,,0.36,WeatherCatV1.02B3,2013-04-01 04:01:00,
2013-03-31 23:06:00,59.7,53.5,29.90,NNE,19,0.0,1.0,80,0.00,,,0.36,WeatherCatV1.02B3,2013-04-01 04:06:00,
2013-03-31 23:11:00,59.6,52.7,29.90,NNE,19,0.0,0.0,78,0.00,,,0.36,WeatherCatV1.02B3,2013-04-01 04:11:00,
2013-03-31 23:16:00,59.5,52.3,29.90,NNE,19,0.0,3.0,77,0.00,,,0.36,WeatherCatV1.02B3,2013-04-01 04:16:00,
2013-03-31 23:21:00,59.5,52.3,29.90,NNE,19,0.0,0.0,77,0.00,,,0.36,WeatherCatV1.02B3,2013-04-01 04:21:00,
2013-03-31 23:26:00,59.5,51.9,29.90,NNE,19,0.0,0.0,76,0.00,,,0.36,WeatherCatV1.02B3,2013-04-01 04:26:00,
2013-03-31 23:31:00,59.4,51.8,29.91,NNE,19,0.0,0.0,76,0.00,,,0.36,WeatherCatV1.02B3,2013-04-01 04:31:00,
2013-03-31 23:36:00,59.3,52.1,29.91,NNE,19,0.0,1.0,77,0.00,,,0.36,WeatherCatV1.02B3,2013-04-01 04:36:00,
2013-03-31 23:41:00,59.3,52.1,29.91,NNE,19,0.0,0.0,77,0.00,,,0.36,WeatherCatV1.02B3,2013-04-01 04:41:00,
2013-03-31 23:46:00,59.1,52.2,29.91,NNE,19,0.0,0.0,78,0.00,,,0.36,WeatherCatV1.02B3,2013-04-01 04:46:00,
2013-03-31 23:51:00,59.0,52.1,29.91,NNE,19,0.0,0.0,78,0.00,,,0.36,WeatherCatV1.02B3,2013-04-01 04:51:00,
2013-03-31 23:56:00,58.8,52.3,29.91,NNE,19,0.0,0.0,79,0.00,,,0.36,WeatherCatV1.02B3,2013-04-01 04:56:00,